Mc Entire JNGB Airport
KMMT : now visible

Airfield :











YOU CAN JOIN US ON...

 
LOGIN :

Register | Disclaimer

   EN    FR    IT 

 









Legend :    VFR   Marginal VFR   IFR   Intensive IFR   Very Intensive IFR
Visi :
Ceiling :
>= 8 km
>= 3000ft
5 to 8 km
1000 to 3000 ft
1500m to 5 km
500 to 1000 ft
800 to 1500m
200 to 500 ft
< 800m
< 200 ft
Symbols :   Thunderstorms  Fog  Heavy snow  Heavy precipitations  Wind > 20 kt







- Airport Elevation : 254 ft


KMMT - Mc Entire JNGB

CURRENT METAR :
  • 181756Z 17007KT 10SM SCT055 SCT200 27/13 A3001 RMK AO2A SLP164 T02650132 10267 20136 58018 $

EXPIRED METARs :
  • 181656Z 18011KT 10SM SCT048 SCT200 26/14 A3004 RMK AO2A SLP174 T02570138 $
  • 181556Z 22010KT 10SM BKN036 BKN200 25/16 A3007 RMK AO2A SLP184 T02480157 $

TAF TAF KMMT
Valid from the 18 at 15:00 until the 19 at 21:00 UTC


181500Z 1815/1921 17012KT 9999 SCT030 SCT250 QNH3000INS
BECMG 1816/1817 18012G18KT 9999 SCT030 BKN250 QNH2987INS
BECMG 1823/1824 16009KT 9999 SCT020 BKN200 QNH2977INS
BECMG 1907/1908 17012KT 9999 BKN010 OVC020 WS020/19040KT QNH2973INS
BECMG 1913/1914 17015G25KT 8000 -TSRA OVC015CB QNH2954INS
TEMPO 1916/1921 17025G35KT 4800 TSRA OVC015CB TX28/1819Z TN17/1911Z
KZJX FIR / North America



MET'MAP, your aeronautical weather chart ! - Copyright ORBIFLY December 2007 - Disclaimer

ORBIFLY MET'MAP TEAM :

Programming & Development : Alexandra Zaïnal
Concept & Development : Baudouin d'Aumeries
Co-Development & Prog : Marc-Olivier Méhu
Technical & hardware support : Manuel Goepfert

Contact : metmap@orbifly.com




SOURCES & CREDITS :

   NOAA       Earth
Advisory